createdAt,value
2023-02-06T00:01:25.348Z,-6.02
2023-02-06T00:03:52.358Z,-6.03
2023-02-06T00:06:19.255Z,-6.03
2023-02-06T00:08:46.215Z,-6.02
2023-02-06T00:11:16.871Z,-6.01
2023-02-06T00:13:44.362Z,-6.01
2023-02-06T00:16:18.860Z,-6.01
2023-02-06T00:18:46.009Z,-6.00
2023-02-06T00:21:13.216Z,-6.00
2023-02-06T00:23:40.891Z,-5.98
2023-02-06T00:26:08.727Z,-5.98
2023-02-06T00:28:37.048Z,-5.97
2023-02-06T00:31:05.689Z,-5.96
2023-02-06T00:33:32.970Z,-5.95
2023-02-06T00:35:59.945Z,-5.95
2023-02-06T00:38:28.795Z,-5.95
2023-02-06T00:40:56.381Z,-5.96
2023-02-06T00:43:23.637Z,-5.97
2023-02-06T00:45:55.758Z,-5.96
2023-02-06T00:48:22.554Z,-5.96
2023-02-06T00:50:50.819Z,-5.96
2023-02-06T00:53:18.103Z,-5.93
2023-02-06T00:55:45.257Z,-5.91
2023-02-06T00:58:12.461Z,-5.92
2023-02-06T01:00:41.813Z,-5.92
2023-02-06T01:03:08.604Z,-5.92
2023-02-06T01:05:36.754Z,-5.95
2023-02-06T01:08:04.844Z,-5.98
2023-02-06T01:10:31.809Z,-5.96
2023-02-06T01:12:59.046Z,-5.93
2023-02-06T01:15:25.935Z,-5.94
2023-02-06T01:17:53.224Z,-5.94
2023-02-06T01:20:21.655Z,-5.94
2023-02-06T01:22:48.546Z,-5.96
2023-02-06T01:25:15.409Z,-5.96
2023-02-06T01:27:42.383Z,-5.97
2023-02-06T01:30:11.658Z,-5.97
2023-02-06T01:32:40.511Z,-5.99
2023-02-06T01:35:09.284Z,-6.02
2023-02-06T01:37:36.321Z,-6.05
2023-02-06T01:40:03.385Z,-6.06
2023-02-06T01:42:30.736Z,-6.07
2023-02-06T01:45:34.052Z,-6.09
2023-02-06T01:48:04.464Z,-6.09
2023-02-06T01:50:33.866Z,-6.09
2023-02-06T01:53:01.670Z,-6.10
2023-02-06T01:55:29.423Z,-6.10
2023-02-06T01:57:58.707Z,-6.10
2023-02-06T02:00:25.900Z,-6.07
2023-02-06T02:02:52.847Z,-6.03
2023-02-06T02:05:22.545Z,-5.98
2023-02-06T02:08:00.972Z,-5.97
2023-02-06T02:10:28.568Z,-5.96
2023-02-06T02:12:56.056Z,-5.98
2023-02-06T02:15:26.236Z,-6.00
2023-02-06T02:18:03.622Z,-6.01
2023-02-06T02:20:50.320Z,-6.02
2023-02-06T02:23:31.969Z,-6.09
2023-02-06T02:26:35.154Z,-6.10
2023-02-06T02:29:24.707Z,-6.13
2023-02-06T02:32:10.164Z,-6.13
2023-02-06T02:34:57.730Z,-6.11
2023-02-06T02:37:32.522Z,-6.09
2023-02-06T02:40:07.957Z,-6.08
2023-02-06T02:42:44.372Z,-6.11
2023-02-06T02:45:20.546Z,-6.12
2023-02-06T02:47:53.500Z,-6.13
2023-02-06T02:50:22.427Z,-6.16
2023-02-06T02:52:49.933Z,-6.17
2023-02-06T02:55:23.480Z,-6.16
2023-02-06T02:57:59.753Z,-6.17
2023-02-06T03:00:28.227Z,-6.17
2023-02-06T03:02:57.679Z,-6.18
2023-02-06T03:05:27.187Z,-6.19
2023-02-06T03:08:06.912Z,-6.21
2023-02-06T03:10:40.473Z,-6.22
2023-02-06T03:13:16.486Z,-6.23
2023-02-06T03:15:50.106Z,-6.23
2023-02-06T03:18:24.390Z,-6.29
2023-02-06T03:20:52.486Z,-6.33
2023-02-06T03:23:23.456Z,-6.37
2023-02-06T03:25:54.571Z,-6.42
2023-02-06T03:28:25.756Z,-6.44
2023-02-06T03:30:58.057Z,-6.47
2023-02-06T03:33:31.746Z,-6.51
2023-02-06T03:35:59.520Z,-6.53
2023-02-06T03:38:28.800Z,-6.55
2023-02-06T03:40:58.170Z,-6.56
2023-02-06T03:43:29.238Z,-6.58
2023-02-06T03:46:01.288Z,-6.62
2023-02-06T03:48:34.187Z,-6.65
2023-02-06T03:51:04.512Z,-6.69
2023-02-06T03:53:34.035Z,-6.72
2023-02-06T03:56:06.898Z,-6.72
2023-02-06T03:58:33.841Z,-6.73
2023-02-06T04:01:01.456Z,-6.74
2023-02-06T04:03:28.533Z,-6.75
2023-02-06T04:05:55.467Z,-6.75
2023-02-06T04:08:22.589Z,-6.77
2023-02-06T04:10:49.487Z,-6.80
2023-02-06T04:13:16.296Z,-6.89
2023-02-06T04:15:43.389Z,-6.98
2023-02-06T04:18:10.252Z,-7.00
2023-02-06T04:20:40.934Z,-7.06
2023-02-06T04:23:08.817Z,-7.12
2023-02-06T04:25:36.288Z,-7.19
2023-02-06T04:28:03.516Z,-7.18
2023-02-06T04:30:30.597Z,-7.20
2023-02-06T04:32:57.680Z,-7.21
2023-02-06T04:35:24.491Z,-7.22
2023-02-06T04:37:51.375Z,-7.23
2023-02-06T04:40:18.764Z,-7.26
2023-02-06T04:42:45.618Z,-7.28
2023-02-06T04:45:12.931Z,-7.29
2023-02-06T04:47:39.803Z,-7.24
2023-02-06T04:50:07.437Z,-7.22
2023-02-06T04:52:34.616Z,-7.28
2023-02-06T04:55:01.470Z,-7.34
2023-02-06T04:57:28.428Z,-7.38
2023-02-06T04:59:55.447Z,-7.41
2023-02-06T05:02:22.318Z,-7.45
2023-02-06T05:04:49.523Z,-7.47
2023-02-06T05:07:16.316Z,-7.47
2023-02-06T05:09:43.195Z,-7.50
2023-02-06T05:12:11.229Z,-7.52
2023-02-06T05:14:39.690Z,-7.54
2023-02-06T05:17:06.815Z,-7.51
2023-02-06T05:19:33.648Z,-7.46
2023-02-06T05:22:00.530Z,-7.42
2023-02-06T05:24:27.374Z,-7.48
2023-02-06T05:26:57.964Z,-7.52
2023-02-06T05:29:24.894Z,-7.52
2023-02-06T05:31:51.730Z,-7.52
2023-02-06T05:34:18.526Z,-7.50
2023-02-06T05:36:45.502Z,-7.48
2023-02-06T05:39:12.322Z,-7.48
2023-02-06T05:41:39.198Z,-7.44
2023-02-06T05:44:06.532Z,-7.40
2023-02-06T05:46:33.526Z,-7.37
2023-02-06T05:49:01.217Z,-7.35
2023-02-06T05:51:28.233Z,-7.36
2023-02-06T05:53:55.407Z,-7.38
2023-02-06T05:56:22.232Z,-7.41
2023-02-06T05:58:49.326Z,-7.44
2023-02-06T06:01:16.397Z,-7.45
2023-02-06T06:03:43.221Z,-7.44
2023-02-06T06:06:11.079Z,-7.40
2023-02-06T06:08:38.223Z,-7.39
2023-02-06T06:11:05.060Z,-7.40
2023-02-06T06:13:32.445Z,-7.47
2023-02-06T06:15:59.268Z,-7.48
2023-02-06T06:18:26.170Z,-7.48
2023-02-06T06:20:53.286Z,-7.53
2023-02-06T06:23:20.312Z,-7.56
2023-02-06T06:25:48.904Z,-7.52
2023-02-06T06:28:16.471Z,-7.49
2023-02-06T06:30:43.650Z,-7.48
2023-02-06T06:33:10.866Z,-7.47
2023-02-06T06:35:37.941Z,-7.44
2023-02-06T06:38:04.966Z,-7.40
2023-02-06T06:40:31.964Z,-7.39
2023-02-06T06:42:58.920Z,-7.39
2023-02-06T06:45:26.077Z,-7.34
2023-02-06T06:47:53.091Z,-7.26
2023-02-06T06:50:20.086Z,-7.24
2023-02-06T06:52:47.040Z,-7.26
2023-02-06T06:55:14.044Z,-7.26
2023-02-06T06:57:41.113Z,-7.22
2023-02-06T07:00:10.401Z,-7.23
2023-02-06T07:02:37.381Z,-7.21
2023-02-06T07:05:05.134Z,-7.16
2023-02-06T07:07:32.155Z,-7.08
2023-02-06T07:09:59.781Z,-7.00
2023-02-06T07:12:26.871Z,-6.91
2023-02-06T07:14:53.702Z,-6.85
2023-02-06T07:17:20.557Z,-6.80
2023-02-06T07:19:48.866Z,-6.76
2023-02-06T07:22:15.834Z,-6.72
2023-02-06T07:24:42.688Z,-6.72
2023-02-06T07:27:09.811Z,-6.67
2023-02-06T07:29:38.124Z,-6.56
2023-02-06T07:32:05.665Z,-6.47
2023-02-06T07:34:32.765Z,-6.36
2023-02-06T07:37:00.901Z,-6.28
2023-02-06T07:39:27.779Z,-6.25
2023-02-06T07:41:54.575Z,-6.18
2023-02-06T07:44:21.882Z,-6.12
2023-02-06T07:46:49.121Z,-6.00
2023-02-06T07:49:16.834Z,-5.91
2023-02-06T07:51:43.879Z,-5.82
2023-02-06T07:54:11.537Z,-5.75
2023-02-06T07:56:38.566Z,-5.65
2023-02-06T07:59:05.892Z,-5.54
2023-02-06T08:01:33.174Z,-5.37
2023-02-06T08:04:00.082Z,-5.22
2023-02-06T08:06:27.647Z,-5.08
2023-02-06T08:08:57.171Z,-4.93
2023-02-06T08:11:26.175Z,-4.76
2023-02-06T08:13:53.083Z,-4.66
2023-02-06T08:16:22.188Z,-4.51
2023-02-06T08:18:50.029Z,-4.37
2023-02-06T08:21:21.008Z,-4.24
2023-02-06T08:23:51.626Z,-4.10
2023-02-06T08:26:19.932Z,-3.95
2023-02-06T08:28:48.527Z,-3.86
2023-02-06T08:31:18.046Z,-3.76
2023-02-06T08:33:45.521Z,-3.72
2023-02-06T08:36:14.196Z,-3.69
2023-02-06T08:38:41.728Z,-3.65
2023-02-06T08:41:18.723Z,-3.56
2023-02-06T08:43:45.568Z,-3.48
2023-02-06T08:46:12.641Z,-3.36
2023-02-06T08:48:39.539Z,-3.12
2023-02-06T08:51:08.908Z,-2.96
2023-02-06T08:53:36.378Z,-2.76
2023-02-06T08:56:05.336Z,-2.55
2023-02-06T08:58:33.288Z,-2.38
2023-02-06T09:01:06.632Z,-2.22
2023-02-06T09:03:33.738Z,-2.00
2023-02-06T09:06:10.292Z,-1.65
2023-02-06T09:08:37.897Z,-1.41
2023-02-06T09:11:10.150Z,-1.05
2023-02-06T09:13:37.217Z,-0.68
2023-02-06T09:16:04.559Z,-0.38
2023-02-06T09:18:31.704Z,0.07
2023-02-06T09:21:10.338Z,0.62
2023-02-06T09:23:37.192Z,1.14
2023-02-06T09:26:04.509Z,1.74
2023-02-06T09:28:31.654Z,2.40
2023-02-06T09:30:58.670Z,3.01
2023-02-06T09:33:26.743Z,3.39
2023-02-06T09:36:03.855Z,3.71
2023-02-06T09:38:30.999Z,3.97
2023-02-06T09:40:59.940Z,4.00
2023-02-06T09:43:27.218Z,4.07
2023-02-06T09:46:00.158Z,4.41
2023-02-06T09:48:31.546Z,4.78
2023-02-06T09:51:08.963Z,4.99
2023-02-06T09:53:45.577Z,5.01
2023-02-06T09:56:21.604Z,5.01
2023-02-06T09:58:54.913Z,4.98
2023-02-06T10:01:28.229Z,5.19
2023-02-06T10:04:13.948Z,5.38
2023-02-06T10:06:46.871Z,5.77
2023-02-06T10:09:18.734Z,6.05
2023-02-06T10:11:50.624Z,6.33
2023-02-06T10:14:24.624Z,6.89
2023-02-06T10:16:54.940Z,7.02
2023-02-06T10:19:26.475Z,6.73
2023-02-06T10:22:02.858Z,6.37
2023-02-06T10:24:38.218Z,6.43
2023-02-06T10:27:14.390Z,6.75
2023-02-06T10:29:44.013Z,6.80
2023-02-06T10:32:28.044Z,6.64
2023-02-06T10:35:13.021Z,6.51
2023-02-06T10:37:59.489Z,6.29
2023-02-06T10:40:40.441Z,6.04
2023-02-06T10:43:18.347Z,5.74
2023-02-06T10:45:52.334Z,5.41
2023-02-06T10:48:29.351Z,5.10
2023-02-06T10:51:00.968Z,4.76
2023-02-06T10:53:32.025Z,4.21
2023-02-06T10:56:03.382Z,3.78
2023-02-06T10:58:36.250Z,3.41
2023-02-06T11:01:16.798Z,3.09
2023-02-06T11:03:57.074Z,2.78
2023-02-06T11:06:26.023Z,2.42
2023-02-06T11:08:53.179Z,2.17
2023-02-06T11:11:24.247Z,1.95
2023-02-06T11:13:53.815Z,1.73
2023-02-06T11:16:26.130Z,1.57
2023-02-06T11:18:55.011Z,1.44
2023-02-06T11:21:51.875Z,1.27
2023-02-06T11:24:21.397Z,1.04
2023-02-06T11:26:51.880Z,0.91
2023-02-06T11:29:21.427Z,0.75
2023-02-06T11:31:50.899Z,0.59
2023-02-06T11:34:25.895Z,0.42
2023-02-06T11:36:57.871Z,0.37
2023-02-06T11:39:30.344Z,0.39
2023-02-06T11:42:03.466Z,0.33
2023-02-06T11:44:36.758Z,0.18
2023-02-06T11:47:22.662Z,0.07
2023-02-06T11:49:49.995Z,-0.01
2023-02-06T11:52:31.136Z,-0.01
2023-02-06T11:55:02.154Z,-0.00
2023-02-06T11:57:29.573Z,0.04
2023-02-06T11:59:58.141Z,0.08
2023-02-06T12:02:31.488Z,-0.03
2023-02-06T12:05:07.979Z,-0.07
2023-02-06T12:07:38.919Z,-0.06
2023-02-06T12:10:16.404Z,-0.04
2023-02-06T12:12:46.808Z,-0.09
2023-02-06T12:15:45.610Z,-0.22
2023-02-06T12:18:10.899Z,-0.23
2023-02-06T12:20:44.209Z,-0.28
2023-02-06T12:23:21.968Z,-0.29
2023-02-06T12:25:54.269Z,-0.28
2023-02-06T12:28:39.445Z,-0.24
2023-02-06T12:31:12.373Z,-0.29
2023-02-06T12:33:45.884Z,-0.33
2023-02-06T12:36:18.828Z,-0.36
2023-02-06T12:38:52.429Z,-0.35
2023-02-06T12:41:33.771Z,-0.30
2023-02-06T12:44:07.697Z,-0.26
2023-02-06T12:46:34.963Z,-0.21
2023-02-06T12:49:13.122Z,-0.14
2023-02-06T12:51:46.748Z,-0.09
2023-02-06T12:54:19.979Z,-0.08
2023-02-06T12:56:51.034Z,-0.04
2023-02-06T12:59:41.630Z,-0.01
2023-02-06T13:02:26.287Z,0.02
2023-02-06T13:04:54.585Z,0.03
2023-02-06T13:11:02.835Z,-0.06
2023-02-06T13:16:39.494Z,-0.26
2023-02-06T13:20:33.310Z,-0.23
2023-02-06T13:24:01.676Z,-0.25
2023-02-06T13:27:02.095Z,-0.27
2023-02-06T13:29:28.015Z,-0.24
2023-02-06T13:32:30.179Z,-0.25
2023-02-06T13:35:02.450Z,-0.28
2023-02-06T13:37:37.403Z,-0.29
2023-02-06T13:40:32.455Z,-0.30
2023-02-06T13:43:04.072Z,-0.30
2023-02-06T13:45:35.545Z,-0.29
2023-02-06T13:48:38.942Z,-0.29
2023-02-06T13:51:40.911Z,-0.32
2023-02-06T13:54:31.917Z,-0.32
2023-02-06T13:57:23.179Z,-0.28
2023-02-06T13:59:55.650Z,-0.30
2023-02-06T14:02:30.046Z,-0.33
2023-02-06T14:04:58.300Z,-0.37
2023-02-06T14:07:44.608Z,-0.41
2023-02-06T14:10:35.490Z,-0.45
2023-02-06T14:13:45.421Z,-0.51
2023-02-06T14:16:25.762Z,-0.55
2023-02-06T14:18:58.994Z,-0.55
2023-02-06T14:21:38.740Z,-0.48
2023-02-06T14:24:28.855Z,-0.44
2023-02-06T14:27:06.322Z,-0.39
2023-02-06T14:29:54.722Z,-0.30
2023-02-06T14:32:40.222Z,-0.24
2023-02-06T14:35:48.632Z,-0.23
2023-02-06T14:38:51.364Z,-0.24
2023-02-06T14:41:19.334Z,-0.24
2023-02-06T14:43:49.498Z,-0.21
2023-02-06T14:46:19.465Z,-0.18
2023-02-06T14:48:51.869Z,-0.14
2023-02-06T14:51:27.512Z,-0.10
2023-02-06T14:53:57.553Z,-0.08
2023-02-06T14:56:39.858Z,-0.08
2023-02-06T14:59:18.780Z,-0.10
2023-02-06T15:01:51.893Z,-0.19
2023-02-06T15:04:24.955Z,-0.37
2023-02-06T15:07:02.038Z,-0.54
2023-02-06T15:09:33.033Z,-0.69
2023-02-06T15:12:06.808Z,-0.81
2023-02-06T15:14:37.233Z,-0.93
2023-02-06T15:17:07.739Z,-1.03
2023-02-06T15:19:36.913Z,-1.13
2023-02-06T15:22:31.262Z,-1.23
2023-02-06T15:25:14.702Z,-1.35
2023-02-06T15:27:44.216Z,-1.49
2023-02-06T15:30:22.420Z,-1.62
2023-02-06T15:32:54.006Z,-1.73
2023-02-06T15:35:27.474Z,-1.84
2023-02-06T15:37:56.900Z,-1.96
2023-02-06T15:40:31.550Z,-2.09
2023-02-06T15:42:59.707Z,-2.21
2023-02-06T15:45:34.594Z,-2.28
2023-02-06T15:48:12.805Z,-2.38
2023-02-06T15:50:40.553Z,-2.46
2023-02-06T15:53:21.120Z,-2.54
2023-02-06T15:56:13.376Z,-2.61
2023-02-06T15:58:42.490Z,-2.69
2023-02-06T16:01:20.341Z,-2.76
2023-02-06T16:03:50.646Z,-2.83
2023-02-06T16:06:19.103Z,-2.88
2023-02-06T16:08:53.023Z,-2.92
2023-02-06T16:11:37.690Z,-2.98
2023-02-06T16:14:06.102Z,-3.05
2023-02-06T16:16:33.474Z,-3.09
2023-02-06T16:19:01.242Z,-3.13
2023-02-06T16:21:31.016Z,-3.16
2023-02-06T16:24:16.450Z,-3.20
2023-02-06T16:26:48.133Z,-3.24
2023-02-06T16:29:33.605Z,-3.27
2023-02-06T16:32:03.269Z,-3.33
2023-02-06T16:34:39.902Z,-3.38
2023-02-06T16:37:12.245Z,-3.41
2023-02-06T16:39:40.240Z,-3.45
2023-02-06T16:42:07.238Z,-3.49
2023-02-06T16:44:44.272Z,-3.53
2023-02-06T16:47:15.656Z,-3.57
2023-02-06T16:49:43.363Z,-3.60
2023-02-06T16:52:16.832Z,-3.67
2023-02-06T16:54:45.043Z,-3.71
2023-02-06T16:57:18.627Z,-3.76
2023-02-06T16:59:45.817Z,-3.77
2023-02-06T17:02:35.885Z,-3.79
2023-02-06T17:05:07.076Z,-3.81
2023-02-06T17:07:42.230Z,-3.82
2023-02-06T17:10:22.891Z,-3.84
2023-02-06T17:13:03.334Z,-3.85
2023-02-06T17:15:32.457Z,-3.87
2023-02-06T17:18:00.807Z,-3.90
2023-02-06T17:20:33.909Z,-3.97
2023-02-06T17:23:09.028Z,-3.97
2023-02-06T17:25:41.423Z,-3.99
2023-02-06T17:28:13.858Z,-4.00
2023-02-06T17:30:44.127Z,-4.03
2023-02-06T17:33:11.468Z,-4.05
2023-02-06T17:35:48.341Z,-4.06
2023-02-06T17:38:20.585Z,-4.11
2023-02-06T17:40:50.200Z,-4.10
2023-02-06T17:43:19.710Z,-4.12
2023-02-06T17:45:49.402Z,-4.12
2023-02-06T17:48:16.526Z,-4.12
2023-02-06T17:50:43.825Z,-4.12
2023-02-06T17:53:14.044Z,-4.12
2023-02-06T17:55:40.973Z,-4.12
2023-02-06T17:58:08.317Z,-4.13
2023-02-06T18:00:35.935Z,-4.14
2023-02-06T18:03:05.429Z,-4.14
2023-02-06T18:05:36.518Z,-4.13
2023-02-06T18:08:03.844Z,-4.12
2023-02-06T18:10:30.795Z,-4.11
2023-02-06T18:12:57.737Z,-4.11
2023-02-06T18:15:25.031Z,-4.11
2023-02-06T18:17:51.932Z,-4.11
2023-02-06T18:20:19.943Z,-4.12
2023-02-06T18:22:47.422Z,-4.14
2023-02-06T18:25:16.111Z,-4.14
2023-02-06T18:27:45.826Z,-4.16
2023-02-06T18:30:15.594Z,-4.19
2023-02-06T18:32:42.888Z,-4.21
2023-02-06T18:35:11.192Z,-4.21
2023-02-06T18:37:39.012Z,-4.21
2023-02-06T18:40:07.130Z,-4.20
2023-02-06T18:42:53.934Z,-4.20
2023-02-06T18:45:21.877Z,-4.19
2023-02-06T18:47:51.360Z,-4.18
2023-02-06T18:50:20.364Z,-4.18
2023-02-06T18:52:47.307Z,-4.17
2023-02-06T18:55:14.297Z,-4.18
2023-02-06T18:57:42.038Z,-4.19
2023-02-06T19:00:12.152Z,-4.20
2023-02-06T19:02:39.791Z,-4.21
2023-02-06T19:05:07.148Z,-4.22
2023-02-06T19:07:34.680Z,-4.22
2023-02-06T19:10:03.520Z,-4.22
2023-02-06T19:12:31.483Z,-4.22
2023-02-06T19:15:34.363Z,-4.22
2023-02-06T19:18:02.545Z,-4.21
2023-02-06T19:20:29.600Z,-4.22
2023-02-06T19:22:57.126Z,-4.24
2023-02-06T19:25:24.611Z,-4.28
2023-02-06T19:27:51.802Z,-4.32
2023-02-06T19:30:39.494Z,-4.35
2023-02-06T19:33:28.887Z,-4.38
2023-02-06T19:36:18.364Z,-4.40
2023-02-06T19:39:09.362Z,-4.42
2023-02-06T19:41:36.671Z,-4.42
2023-02-06T19:44:24.113Z,-4.41
2023-02-06T19:55:41.353Z,-4.23
2023-02-06T19:58:11.097Z,-4.19
2023-02-06T20:00:39.400Z,-4.17
2023-02-06T20:03:08.324Z,-4.16
2023-02-06T20:05:54.869Z,-4.16
2023-02-06T20:08:23.945Z,-4.17
2023-02-06T20:10:51.472Z,-4.19
2023-02-06T20:13:18.563Z,-4.21
2023-02-06T20:15:48.257Z,-4.24
2023-02-06T20:18:15.362Z,-4.28
2023-02-06T20:20:47.154Z,-4.33
2023-02-06T20:23:23.302Z,-4.35
2023-02-06T20:25:50.651Z,-4.38
2023-02-06T20:28:21.150Z,-4.41
2023-02-06T20:30:48.283Z,-4.46
2023-02-06T20:33:18.396Z,-4.49
2023-02-06T20:35:53.358Z,-4.50
2023-02-06T20:38:20.602Z,-4.53
2023-02-06T20:40:54.065Z,-4.57
2023-02-06T20:43:21.356Z,-4.60
2023-02-06T20:45:48.456Z,-4.64
2023-02-06T20:48:15.484Z,-4.67
2023-02-06T20:50:42.776Z,-4.70
2023-02-06T20:53:19.882Z,-4.74
2023-02-06T20:55:47.945Z,-4.77
2023-02-06T20:58:14.914Z,-4.82
2023-02-06T21:00:44.690Z,-4.87
2023-02-06T21:03:14.388Z,-4.91
2023-02-06T21:05:41.964Z,-4.95
2023-02-06T21:08:09.393Z,-4.99
2023-02-06T21:10:43.858Z,-5.03
2023-02-06T21:13:14.189Z,-5.05
2023-02-06T21:16:02.212Z,-5.08
2023-02-06T21:18:31.854Z,-5.12
2023-02-06T21:21:07.534Z,-5.15
2023-02-06T21:23:38.384Z,-5.19
2023-02-06T21:26:09.943Z,-5.21
2023-02-06T21:28:38.057Z,-5.23
2023-02-06T21:31:07.872Z,-5.25
2023-02-06T21:33:38.862Z,-5.27
2023-02-06T21:36:09.732Z,-5.30
2023-02-06T21:38:37.476Z,-5.32
2023-02-06T21:41:08.921Z,-5.34
2023-02-06T21:43:36.465Z,-5.37
2023-02-06T21:46:14.421Z,-5.38
2023-02-06T21:48:44.410Z,-5.38
2023-02-06T21:51:13.611Z,-5.41
2023-02-06T21:53:43.697Z,-5.43
2023-02-06T21:56:14.737Z,-5.47
2023-02-06T21:58:42.256Z,-5.48
2023-02-06T22:01:14.216Z,-5.50
2023-02-06T22:03:41.143Z,-5.52
2023-02-06T22:06:11.821Z,-5.54
2023-02-06T22:08:40.191Z,-5.52
2023-02-06T22:11:15.605Z,-5.57
2023-02-06T22:13:44.190Z,-5.56
2023-02-06T22:16:13.124Z,-5.59
2023-02-06T22:18:43.525Z,-5.56
2023-02-06T22:21:23.626Z,-5.56
2023-02-06T22:24:01.371Z,-5.55
2023-02-06T22:26:33.362Z,-5.53
2023-02-06T22:29:01.666Z,-5.54
2023-02-06T22:31:48.684Z,-5.53
2023-02-06T22:34:19.643Z,-5.51
2023-02-06T22:36:56.714Z,-5.48
2023-02-06T22:39:24.322Z,-5.44
2023-02-06T22:41:56.555Z,-5.41
2023-02-06T22:44:24.279Z,-5.37
2023-02-06T22:46:53.681Z,-5.35
2023-02-06T22:49:21.523Z,-5.32
2023-02-06T22:51:49.158Z,-5.28
2023-02-06T22:54:26.321Z,-5.25
2023-02-06T22:56:53.549Z,-5.24
2023-02-06T22:59:22.738Z,-5.20
2023-02-06T23:01:52.465Z,-5.16
2023-02-06T23:04:21.560Z,-5.12
2023-02-06T23:06:51.917Z,-5.11
2023-02-06T23:09:31.644Z,-5.15
2023-02-06T23:11:59.812Z,-5.23
2023-02-06T23:14:38.059Z,-5.27
2023-02-06T23:17:07.952Z,-5.28
2023-02-06T23:19:35.347Z,-5.29
2023-02-06T23:22:05.003Z,-5.29
2023-02-06T23:24:32.413Z,-5.29
2023-02-06T23:27:10.018Z,-5.29
2023-02-06T23:29:39.426Z,-5.30
2023-02-06T23:32:06.807Z,-5.27
2023-02-06T23:34:39.099Z,-5.24
2023-02-06T23:37:10.282Z,-5.18
2023-02-06T23:39:40.872Z,-5.14
2023-02-06T23:42:08.215Z,-5.10
2023-02-06T23:44:46.536Z,-5.05
2023-02-06T23:47:13.661Z,-5.02
2023-02-06T23:49:43.643Z,-4.98
2023-02-06T23:52:21.887Z,-4.93
2023-02-06T23:54:49.034Z,-4.91
2023-02-06T23:57:19.010Z,-4.87
